sensor_id;sensor_type;location;lat;lon;timestamp;P1;durP1;ratioP1;P2;durP2;ratioP2
19998;SDS011;10160;50.926;4.374;2023-04-03T00:01:12;18.10;;;9.87;;
19998;SDS011;10160;50.926;4.374;2023-04-03T00:03:38;14.20;;;9.67;;
19998;SDS011;10160;50.926;4.374;2023-04-03T00:06:04;18.77;;;9.30;;
19998;SDS011;10160;50.926;4.374;2023-04-03T00:08:32;15.37;;;9.70;;
19998;SDS011;10160;50.926;4.374;2023-04-03T00:10:58;15.33;;;9.77;;
19998;SDS011;10160;50.926;4.374;2023-04-03T00:13:23;15.17;;;8.93;;
19998;SDS011;10160;50.926;4.374;2023-04-03T00:15:50;19.00;;;10.77;;
19998;SDS011;10160;50.926;4.374;2023-04-03T00:18:16;17.63;;;9.87;;
19998;SDS011;10160;50.926;4.374;2023-04-03T00:20:42;17.50;;;10.13;;
19998;SDS011;10160;50.926;4.374;2023-04-03T00:23:09;16.30;;;9.90;;
19998;SDS011;10160;50.926;4.374;2023-04-03T00:25:35;17.40;;;9.53;;
19998;SDS011;10160;50.926;4.374;2023-04-03T00:28:01;15.90;;;9.63;;
19998;SDS011;10160;50.926;4.374;2023-04-03T00:30:27;15.20;;;9.13;;
19998;SDS011;10160;50.926;4.374;2023-04-03T00:32:53;15.73;;;10.07;;
19998;SDS011;10160;50.926;4.374;2023-04-03T00:35:19;19.83;;;9.30;;
19998;SDS011;10160;50.926;4.374;2023-04-03T00:37:46;16.93;;;9.77;;
19998;SDS011;10160;50.926;4.374;2023-04-03T00:40:12;16.50;;;9.00;;
19998;SDS011;10160;50.926;4.374;2023-04-03T00:42:42;17.93;;;9.07;;
19998;SDS011;10160;50.926;4.374;2023-04-03T00:48:13;13.00;;;8.37;;
19998;SDS011;10160;50.926;4.374;2023-04-03T00:50:43;14.23;;;8.83;;
19998;SDS011;10160;50.926;4.374;2023-04-03T00:53:21;13.83;;;8.87;;
19998;SDS011;10160;50.926;4.374;2023-04-03T00:55:49;15.40;;;9.13;;
19998;SDS011;10160;50.926;4.374;2023-04-03T00:58:18;15.60;;;8.80;;
19998;SDS011;10160;50.926;4.374;2023-04-03T01:00:48;15.70;;;8.50;;
19998;SDS011;10160;50.926;4.374;2023-04-03T01:03:21;15.20;;;9.13;;
19998;SDS011;10160;50.926;4.374;2023-04-03T01:05:47;14.67;;;8.20;;
19998;SDS011;10160;50.926;4.374;2023-04-03T01:08:12;16.93;;;8.40;;
19998;SDS011;10160;50.926;4.374;2023-04-03T01:10:38;14.13;;;8.40;;
19998;SDS011;10160;50.926;4.374;2023-04-03T01:13:17;14.40;;;8.47;;
19998;SDS011;10160;50.926;4.374;2023-04-03T01:15:54;12.77;;;7.90;;
19998;SDS011;10160;50.926;4.374;2023-04-03T01:18:20;12.60;;;8.03;;
19998;SDS011;10160;50.926;4.374;2023-04-03T01:20:57;15.50;;;8.40;;
19998;SDS011;10160;50.926;4.374;2023-04-03T01:26:14;15.07;;;8.20;;
19998;SDS011;10160;50.926;4.374;2023-04-03T01:28:40;12.70;;;8.47;;
19998;SDS011;10160;50.926;4.374;2023-04-03T01:32:07;13.53;;;8.17;;
19998;SDS011;10160;50.926;4.374;2023-04-03T01:34:10;13.87;;;8.10;;
19998;SDS011;10160;50.926;4.374;2023-04-03T01:36:35;15.00;;;7.87;;
19998;SDS011;10160;50.926;4.374;2023-04-03T01:39:01;12.10;;;8.10;;
19998;SDS011;10160;50.926;4.374;2023-04-03T01:41:27;13.97;;;8.23;;
19998;SDS011;10160;50.926;4.374;2023-04-03T01:43:53;11.27;;;7.33;;
19998;SDS011;10160;50.926;4.374;2023-04-03T01:46:19;13.60;;;8.00;;
19998;SDS011;10160;50.926;4.374;2023-04-03T01:48:45;12.23;;;7.83;;
19998;SDS011;10160;50.926;4.374;2023-04-03T01:51:11;11.03;;;7.60;;
19998;SDS011;10160;50.926;4.374;2023-04-03T01:53:37;12.60;;;8.47;;
19998;SDS011;10160;50.926;4.374;2023-04-03T01:56:03;14.97;;;8.30;;
19998;SDS011;10160;50.926;4.374;2023-04-03T01:58:29;13.43;;;8.37;;
19998;SDS011;10160;50.926;4.374;2023-04-03T02:00:55;15.10;;;8.27;;
19998;SDS011;10160;50.926;4.374;2023-04-03T02:03:20;14.63;;;7.90;;
19998;SDS011;10160;50.926;4.374;2023-04-03T02:05:46;16.17;;;8.67;;
19998;SDS011;10160;50.926;4.374;2023-04-03T02:08:12;16.20;;;8.27;;
19998;SDS011;10160;50.926;4.374;2023-04-03T02:10:38;11.33;;;7.80;;
19998;SDS011;10160;50.926;4.374;2023-04-03T02:13:04;13.60;;;8.17;;
19998;SDS011;10160;50.926;4.374;2023-04-03T02:15:30;14.23;;;8.70;;
19998;SDS011;10160;50.926;4.374;2023-04-03T02:17:56;13.57;;;8.13;;
19998;SDS011;10160;50.926;4.374;2023-04-03T02:20:22;11.47;;;8.00;;
19998;SDS011;10160;50.926;4.374;2023-04-03T02:22:47;13.10;;;8.43;;
19998;SDS011;10160;50.926;4.374;2023-04-03T02:25:13;13.53;;;8.97;;
19998;SDS011;10160;50.926;4.374;2023-04-03T02:27:39;14.33;;;7.87;;
19998;SDS011;10160;50.926;4.374;2023-04-03T02:30:06;15.10;;;8.00;;
19998;SDS011;10160;50.926;4.374;2023-04-03T02:32:32;13.83;;;8.43;;
19998;SDS011;10160;50.926;4.374;2023-04-03T02:34:57;12.50;;;7.87;;
19998;SDS011;10160;50.926;4.374;2023-04-03T02:37:23;14.27;;;8.20;;
19998;SDS011;10160;50.926;4.374;2023-04-03T02:39:49;12.03;;;8.13;;
19998;SDS011;10160;50.926;4.374;2023-04-03T02:42:15;12.67;;;7.87;;
19998;SDS011;10160;50.926;4.374;2023-04-03T02:44:41;12.23;;;7.80;;
19998;SDS011;10160;50.926;4.374;2023-04-03T02:47:06;14.40;;;7.67;;
19998;SDS011;10160;50.926;4.374;2023-04-03T02:49:33;12.23;;;7.87;;
19998;SDS011;10160;50.926;4.374;2023-04-03T02:51:59;13.73;;;8.37;;
19998;SDS011;10160;50.926;4.374;2023-04-03T02:54:25;13.37;;;7.80;;
19998;SDS011;10160;50.926;4.374;2023-04-03T02:56:53;14.77;;;8.20;;
19998;SDS011;10160;50.926;4.374;2023-04-03T02:59:19;16.50;;;8.63;;
19998;SDS011;10160;50.926;4.374;2023-04-03T03:01:45;13.93;;;8.57;;
19998;SDS011;10160;50.926;4.374;2023-04-03T03:04:11;11.93;;;7.77;;
19998;SDS011;10160;50.926;4.374;2023-04-03T03:06:37;14.10;;;7.80;;
19998;SDS011;10160;50.926;4.374;2023-04-03T03:09:03;14.67;;;8.47;;
19998;SDS011;10160;50.926;4.374;2023-04-03T03:11:29;14.43;;;8.40;;
19998;SDS011;10160;50.926;4.374;2023-04-03T03:13:55;16.53;;;8.40;;
19998;SDS011;10160;50.926;4.374;2023-04-03T03:16:21;13.10;;;8.57;;
19998;SDS011;10160;50.926;4.374;2023-04-03T03:18:47;10.80;;;7.93;;
19998;SDS011;10160;50.926;4.374;2023-04-03T03:21:12;16.07;;;7.97;;
19998;SDS011;10160;50.926;4.374;2023-04-03T03:23:38;15.40;;;8.80;;
19998;SDS011;10160;50.926;4.374;2023-04-03T03:26:06;16.00;;;8.63;;
19998;SDS011;10160;50.926;4.374;2023-04-03T03:28:33;12.67;;;8.53;;
19998;SDS011;10160;50.926;4.374;2023-04-03T03:31:01;14.87;;;8.47;;
19998;SDS011;10160;50.926;4.374;2023-04-03T03:33:27;12.53;;;8.40;;
19998;SDS011;10160;50.926;4.374;2023-04-03T03:35:53;13.20;;;8.60;;
19998;SDS011;10160;50.926;4.374;2023-04-03T03:38:19;16.23;;;8.43;;
19998;SDS011;10160;50.926;4.374;2023-04-03T03:40:46;13.77;;;8.20;;
19998;SDS011;10160;50.926;4.374;2023-04-03T03:43:13;13.80;;;8.83;;
19998;SDS011;10160;50.926;4.374;2023-04-03T03:45:40;14.53;;;8.80;;
19998;SDS011;10160;50.926;4.374;2023-04-03T03:48:06;13.33;;;9.00;;
19998;SDS011;10160;50.926;4.374;2023-04-03T03:50:31;16.70;;;8.60;;
19998;SDS011;10160;50.926;4.374;2023-04-03T03:52:57;14.80;;;9.10;;
19998;SDS011;10160;50.926;4.374;2023-04-03T03:55:23;14.87;;;9.43;;
19998;SDS011;10160;50.926;4.374;2023-04-03T03:57:49;16.43;;;8.97;;
19998;SDS011;10160;50.926;4.374;2023-04-03T04:00:14;15.57;;;8.77;;
19998;SDS011;10160;50.926;4.374;2023-04-03T04:02:40;17.57;;;9.20;;
19998;SDS011;10160;50.926;4.374;2023-04-03T04:05:06;15.33;;;9.30;;
19998;SDS011;10160;50.926;4.374;2023-04-03T04:07:32;15.53;;;9.73;;
19998;SDS011;10160;50.926;4.374;2023-04-03T04:09:58;15.93;;;9.60;;
19998;SDS011;10160;50.926;4.374;2023-04-03T04:12:23;14.33;;;9.70;;
19998;SDS011;10160;50.926;4.374;2023-04-03T04:14:49;15.83;;;9.90;;
19998;SDS011;10160;50.926;4.374;2023-04-03T04:17:15;17.37;;;9.87;;
19998;SDS011;10160;50.926;4.374;2023-04-03T04:19:40;13.90;;;9.80;;
19998;SDS011;10160;50.926;4.374;2023-04-03T04:22:06;17.57;;;10.63;;
19998;SDS011;10160;50.926;4.374;2023-04-03T04:24:32;14.57;;;9.67;;
19998;SDS011;10160;50.926;4.374;2023-04-03T04:26:58;17.70;;;9.93;;
19998;SDS011;10160;50.926;4.374;2023-04-03T04:29:23;18.47;;;10.00;;
19998;SDS011;10160;50.926;4.374;2023-04-03T04:31:49;16.17;;;10.17;;
19998;SDS011;10160;50.926;4.374;2023-04-03T04:34:15;16.33;;;10.00;;
19998;SDS011;10160;50.926;4.374;2023-04-03T04:36:41;20.20;;;11.13;;
19998;SDS011;10160;50.926;4.374;2023-04-03T04:39:07;20.70;;;10.63;;
19998;SDS011;10160;50.926;4.374;2023-04-03T04:41:32;20.17;;;11.23;;
19998;SDS011;10160;50.926;4.374;2023-04-03T04:43:59;15.73;;;9.53;;
19998;SDS011;10160;50.926;4.374;2023-04-03T04:46:25;16.90;;;11.17;;
19998;SDS011;10160;50.926;4.374;2023-04-03T04:48:51;23.23;;;10.97;;
19998;SDS011;10160;50.926;4.374;2023-04-03T04:51:17;17.87;;;10.70;;
19998;SDS011;10160;50.926;4.374;2023-04-03T04:53:43;17.00;;;10.43;;
19998;SDS011;10160;50.926;4.374;2023-04-03T04:56:09;16.80;;;10.53;;
19998;SDS011;10160;50.926;4.374;2023-04-03T04:58:35;19.93;;;11.33;;
19998;SDS011;10160;50.926;4.374;2023-04-03T05:01:08;19.53;;;10.73;;
19998;SDS011;10160;50.926;4.374;2023-04-03T05:03:35;19.83;;;11.30;;
19998;SDS011;10160;50.926;4.374;2023-04-03T05:06:01;17.70;;;11.23;;
19998;SDS011;10160;50.926;4.374;2023-04-03T05:08:26;19.37;;;10.43;;
19998;SDS011;10160;50.926;4.374;2023-04-03T05:10:52;18.97;;;11.13;;
19998;SDS011;10160;50.926;4.374;2023-04-03T05:13:18;18.20;;;11.13;;
19998;SDS011;10160;50.926;4.374;2023-04-03T05:15:45;23.17;;;11.43;;
19998;SDS011;10160;50.926;4.374;2023-04-03T05:18:11;19.73;;;11.17;;
19998;SDS011;10160;50.926;4.374;2023-04-03T05:20:37;23.70;;;12.03;;
19998;SDS011;10160;50.926;4.374;2023-04-03T05:23:03;17.50;;;11.37;;
19998;SDS011;10160;50.926;4.374;2023-04-03T05:25:29;21.63;;;11.17;;
19998;SDS011;10160;50.926;4.374;2023-04-03T05:27:55;17.10;;;11.10;;
19998;SDS011;10160;50.926;4.374;2023-04-03T05:30:20;18.33;;;11.90;;
19998;SDS011;10160;50.926;4.374;2023-04-03T05:32:46;20.10;;;11.73;;
19998;SDS011;10160;50.926;4.374;2023-04-03T05:35:12;19.23;;;11.87;;
19998;SDS011;10160;50.926;4.374;2023-04-03T05:37:38;18.63;;;11.63;;
19998;SDS011;10160;50.926;4.374;2023-04-03T05:40:04;22.00;;;12.07;;
19998;SDS011;10160;50.926;4.374;2023-04-03T05:42:31;19.37;;;12.47;;
19998;SDS011;10160;50.926;4.374;2023-04-03T05:44:56;18.63;;;12.00;;
19998;SDS011;10160;50.926;4.374;2023-04-03T05:47:22;17.30;;;11.77;;
19998;SDS011;10160;50.926;4.374;2023-04-03T05:49:48;18.43;;;12.07;;
19998;SDS011;10160;50.926;4.374;2023-04-03T05:52:26;19.87;;;11.53;;
19998;SDS011;10160;50.926;4.374;2023-04-03T05:54:53;19.37;;;12.07;;
19998;SDS011;10160;50.926;4.374;2023-04-03T05:57:20;17.67;;;11.70;;
19998;SDS011;10160;50.926;4.374;2023-04-03T05:59:46;22.03;;;12.23;;
19998;SDS011;10160;50.926;4.374;2023-04-03T06:02:12;19.37;;;11.97;;
19998;SDS011;10160;50.926;4.374;2023-04-03T06:04:40;22.23;;;11.63;;
19998;SDS011;10160;50.926;4.374;2023-04-03T06:07:06;22.40;;;12.77;;
19998;SDS011;10160;50.926;4.374;2023-04-03T06:09:39;19.47;;;12.63;;
19998;SDS011;10160;50.926;4.374;2023-04-03T06:12:05;21.13;;;12.77;;
19998;SDS011;10160;50.926;4.374;2023-04-03T06:14:31;20.00;;;12.37;;
19998;SDS011;10160;50.926;4.374;2023-04-03T06:16:56;20.60;;;11.80;;
19998;SDS011;10160;50.926;4.374;2023-04-03T06:19:22;21.07;;;12.40;;
19998;SDS011;10160;50.926;4.374;2023-04-03T06:21:48;20.63;;;13.00;;
19998;SDS011;10160;50.926;4.374;2023-04-03T06:24:15;19.97;;;13.30;;
19998;SDS011;10160;50.926;4.374;2023-04-03T06:26:41;20.70;;;13.13;;
19998;SDS011;10160;50.926;4.374;2023-04-03T06:29:08;21.93;;;13.30;;
19998;SDS011;10160;50.926;4.374;2023-04-03T06:31:34;20.37;;;12.77;;
19998;SDS011;10160;50.926;4.374;2023-04-03T06:34:01;21.27;;;12.33;;
19998;SDS011;10160;50.926;4.374;2023-04-03T06:36:27;21.53;;;13.47;;
19998;SDS011;10160;50.926;4.374;2023-04-03T06:38:54;22.97;;;14.33;;
19998;SDS011;10160;50.926;4.374;2023-04-03T06:41:20;22.50;;;13.40;;
19998;SDS011;10160;50.926;4.374;2023-04-03T06:43:46;21.47;;;14.20;;
19998;SDS011;10160;50.926;4.374;2023-04-03T06:46:15;19.50;;;12.93;;
19998;SDS011;10160;50.926;4.374;2023-04-03T06:48:43;19.27;;;12.13;;
19998;SDS011;10160;50.926;4.374;2023-04-03T06:51:30;19.53;;;11.90;;
19998;SDS011;10160;50.926;4.374;2023-04-03T06:53:57;22.87;;;11.60;;
19998;SDS011;10160;50.926;4.374;2023-04-03T06:56:24;25.10;;;10.93;;
19998;SDS011;10160;50.926;4.374;2023-04-03T06:58:51;16.17;;;11.07;;
19998;SDS011;10160;50.926;4.374;2023-04-03T07:01:19;17.57;;;10.20;;
19998;SDS011;10160;50.926;4.374;2023-04-03T07:03:45;19.60;;;11.30;;
19998;SDS011;10160;50.926;4.374;2023-04-03T07:06:13;18.10;;;10.50;;
19998;SDS011;10160;50.926;4.374;2023-04-03T07:08:40;17.13;;;10.13;;
19998;SDS011;10160;50.926;4.374;2023-04-03T07:11:07;19.57;;;10.10;;
19998;SDS011;10160;50.926;4.374;2023-04-03T07:13:33;16.30;;;9.93;;
19998;SDS011;10160;50.926;4.374;2023-04-03T07:15:59;16.33;;;9.23;;
19998;SDS011;10160;50.926;4.374;2023-04-03T07:18:25;16.13;;;9.47;;
19998;SDS011;10160;50.926;4.374;2023-04-03T07:20:51;18.97;;;9.70;;
19998;SDS011;10160;50.926;4.374;2023-04-03T07:23:17;16.83;;;9.53;;
19998;SDS011;10160;50.926;4.374;2023-04-03T07:25:44;17.03;;;9.57;;
19998;SDS011;10160;50.926;4.374;2023-04-03T07:28:11;18.30;;;8.77;;
19998;SDS011;10160;50.926;4.374;2023-04-03T07:30:43;12.07;;;8.07;;
19998;SDS011;10160;50.926;4.374;2023-04-03T07:33:10;12.97;;;9.00;;
19998;SDS011;10160;50.926;4.374;2023-04-03T07:35:36;15.10;;;9.23;;
19998;SDS011;10160;50.926;4.374;2023-04-03T07:38:02;12.37;;;9.03;;
19998;SDS011;10160;50.926;4.374;2023-04-03T07:40:28;13.13;;;8.60;;
19998;SDS011;10160;50.926;4.374;2023-04-03T07:42:53;14.27;;;8.80;;
19998;SDS011;10160;50.926;4.374;2023-04-03T07:45:21;14.50;;;8.57;;
19998;SDS011;10160;50.926;4.374;2023-04-03T07:47:47;14.80;;;8.07;;
19998;SDS011;10160;50.926;4.374;2023-04-03T07:50:13;11.23;;;7.63;;
19998;SDS011;10160;50.926;4.374;2023-04-03T07:52:39;11.20;;;7.47;;
19998;SDS011;10160;50.926;4.374;2023-04-03T07:55:06;14.90;;;7.90;;
19998;SDS011;10160;50.926;4.374;2023-04-03T07:57:32;12.67;;;6.93;;
19998;SDS011;10160;50.926;4.374;2023-04-03T07:59:57;10.57;;;7.23;;
19998;SDS011;10160;50.926;4.374;2023-04-03T08:02:23;16.57;;;8.03;;
19998;SDS011;10160;50.926;4.374;2023-04-03T08:04:49;16.83;;;9.40;;
19998;SDS011;10160;50.926;4.374;2023-04-03T08:07:15;16.17;;;9.00;;
19998;SDS011;10160;50.926;4.374;2023-04-03T08:09:40;14.83;;;8.20;;
19998;SDS011;10160;50.926;4.374;2023-04-03T08:12:06;12.50;;;6.93;;
19998;SDS011;10160;50.926;4.374;2023-04-03T08:14:32;13.50;;;6.80;;
19998;SDS011;10160;50.926;4.374;2023-04-03T08:16:59;14.27;;;7.90;;
19998;SDS011;10160;50.926;4.374;2023-04-03T08:19:26;14.00;;;7.63;;
19998;SDS011;10160;50.926;4.374;2023-04-03T08:21:52;11.47;;;7.50;;
19998;SDS011;10160;50.926;4.374;2023-04-03T08:24:19;10.40;;;6.70;;
19998;SDS011;10160;50.926;4.374;2023-04-03T08:26:44;12.83;;;7.53;;
19998;SDS011;10160;50.926;4.374;2023-04-03T08:29:10;12.33;;;8.43;;
19998;SDS011;10160;50.926;4.374;2023-04-03T08:31:36;15.43;;;8.50;;
19998;SDS011;10160;50.926;4.374;2023-04-03T08:34:02;19.60;;;9.60;;
19998;SDS011;10160;50.926;4.374;2023-04-03T08:36:28;14.53;;;7.27;;
19998;SDS011;10160;50.926;4.374;2023-04-03T08:38:55;13.77;;;7.90;;
19998;SDS011;10160;50.926;4.374;2023-04-03T08:46:54;8.77;;;5.97;;
19998;SDS011;10160;50.926;4.374;2023-04-03T08:49:41;12.10;;;6.43;;
19998;SDS011;10160;50.926;4.374;2023-04-03T08:52:32;13.03;;;6.07;;
19998;SDS011;10160;50.926;4.374;2023-04-03T08:55:22;12.40;;;6.43;;
19998;SDS011;10160;50.926;4.374;2023-04-03T09:00:59;11.83;;;5.47;;
19998;SDS011;10160;50.926;4.374;2023-04-03T09:03:29;10.03;;;4.87;;
19998;SDS011;10160;50.926;4.374;2023-04-03T09:08:30;11.90;;;4.87;;
19998;SDS011;10160;50.926;4.374;2023-04-03T09:16:59;9.63;;;4.10;;
19998;SDS011;10160;50.926;4.374;2023-04-03T09:19:53;9.23;;;4.70;;
19998;SDS011;10160;50.926;4.374;2023-04-03T09:22:23;11.90;;;4.50;;
19998;SDS011;10160;50.926;4.374;2023-04-03T09:24:55;11.73;;;4.30;;
19998;SDS011;10160;50.926;4.374;2023-04-03T09:27:38;6.00;;;3.27;;
19998;SDS011;10160;50.926;4.374;2023-04-03T09:30:05;8.63;;;3.30;;
19998;SDS011;10160;50.926;4.374;2023-04-03T09:32:35;6.77;;;3.13;;
19998;SDS011;10160;50.926;4.374;2023-04-03T09:35:03;7.87;;;2.83;;
19998;SDS011;10160;50.926;4.374;2023-04-03T09:37:40;12.73;;;3.50;;
19998;SDS011;10160;50.926;4.374;2023-04-03T09:42:56;5.03;;;2.40;;
19998;SDS011;10160;50.926;4.374;2023-04-03T09:45:30;5.63;;;2.50;;
19998;SDS011;10160;50.926;4.374;2023-04-03T09:50:30;8.87;;;2.97;;
19998;SDS011;10160;50.926;4.374;2023-04-03T09:52:55;6.23;;;2.43;;
19998;SDS011;10160;50.926;4.374;2023-04-03T09:55:27;8.47;;;2.67;;
19998;SDS011;10160;50.926;4.374;2023-04-03T09:58:00;7.47;;;3.00;;
19998;SDS011;10160;50.926;4.374;2023-04-03T10:00:33;10.83;;;3.07;;
19998;SDS011;10160;50.926;4.374;2023-04-03T10:03:01;9.90;;;2.90;;
19998;SDS011;10160;50.926;4.374;2023-04-03T10:05:35;6.20;;;2.73;;
19998;SDS011;10160;50.926;4.374;2023-04-03T10:10:41;6.00;;;2.50;;
19998;SDS011;10160;50.926;4.374;2023-04-03T10:13:16;8.63;;;2.60;;
19998;SDS011;10160;50.926;4.374;2023-04-03T10:18:37;4.90;;;2.20;;
19998;SDS011;10160;50.926;4.374;2023-04-03T10:21:59;6.60;;;2.10;;
19998;SDS011;10160;50.926;4.374;2023-04-03T10:27:36;7.80;;;2.40;;
19998;SDS011;10160;50.926;4.374;2023-04-03T10:30:19;8.70;;;2.30;;
19998;SDS011;10160;50.926;4.374;2023-04-03T10:36:12;7.93;;;2.47;;
19998;SDS011;10160;50.926;4.374;2023-04-03T10:41:29;7.40;;;2.10;;
19998;SDS011;10160;50.926;4.374;2023-04-03T10:47:36;7.15;;;2.20;;
19998;SDS011;10160;50.926;4.374;2023-04-03T10:53:20;6.35;;;1.83;;
19998;SDS011;10160;50.926;4.374;2023-04-03T11:01:55;12.77;;;3.10;;
19998;SDS011;10160;50.926;4.374;2023-04-03T11:04:25;8.70;;;1.70;;
19998;SDS011;10160;50.926;4.374;2023-04-03T11:07:08;11.27;;;3.40;;
19998;SDS011;10160;50.926;4.374;2023-04-03T11:09:40;9.00;;;2.50;;
19998;SDS011;10160;50.926;4.374;2023-04-03T11:15:12;6.82;;;2.20;;
19998;SDS011;10160;50.926;4.374;2023-04-03T11:17:43;8.15;;;2.67;;
19998;SDS011;10160;50.926;4.374;2023-04-03T11:20:20;5.72;;;2.03;;
19998;SDS011;10160;50.926;4.374;2023-04-03T11:22:53;7.78;;;2.10;;
19998;SDS011;10160;50.926;4.374;2023-04-03T11:25:25;6.37;;;2.40;;
19998;SDS011;10160;50.926;4.374;2023-04-03T11:27:56;8.45;;;3.42;;
19998;SDS011;10160;50.926;4.374;2023-04-03T11:30:25;5.28;;;1.85;;
19998;SDS011;10160;50.926;4.374;2023-04-03T11:33:07;7.25;;;3.15;;
19998;SDS011;10160;50.926;4.374;2023-04-03T11:35:53;17.00;;;5.53;;
19998;SDS011;10160;50.926;4.374;2023-04-03T11:38:25;5.23;;;1.60;;
19998;SDS011;10160;50.926;4.374;2023-04-03T11:40:54;7.90;;;3.20;;
19998;SDS011;10160;50.926;4.374;2023-04-03T11:43:23;7.80;;;3.20;;
19998;SDS011;10160;50.926;4.374;2023-04-03T11:45:58;4.90;;;2.00;;
19998;SDS011;10160;50.926;4.374;2023-04-03T11:51:39;12.93;;;1.73;;
19998;SDS011;10160;50.926;4.374;2023-04-03T11:53:43;5.03;;;1.63;;
19998;SDS011;10160;50.926;4.374;2023-04-03T12:01:44;4.67;;;1.87;;
19998;SDS011;10160;50.926;4.374;2023-04-03T12:04:14;5.20;;;2.07;;
19998;SDS011;10160;50.926;4.374;2023-04-03T12:09:29;5.10;;;1.50;;
19998;SDS011;10160;50.926;4.374;2023-04-03T12:12:54;6.20;;;2.03;;
19998;SDS011;10160;50.926;4.374;2023-04-03T12:15:24;7.37;;;1.70;;
19998;SDS011;10160;50.926;4.374;2023-04-03T12:21:06;9.00;;;2.03;;
19998;SDS011;10160;50.926;4.374;2023-04-03T12:23:33;8.17;;;1.63;;
19998;SDS011;10160;50.926;4.374;2023-04-03T12:26:05;9.07;;;2.00;;
19998;SDS011;10160;50.926;4.374;2023-04-03T12:28:44;7.07;;;2.20;;
19998;SDS011;10160;50.926;4.374;2023-04-03T12:31:11;8.07;;;2.05;;
19998;SDS011;10160;50.926;4.374;2023-04-03T12:36:58;6.53;;;1.97;;
19998;SDS011;10160;50.926;4.374;2023-04-03T12:39:43;4.47;;;1.60;;
19998;SDS011;10160;50.926;4.374;2023-04-03T12:45:21;8.70;;;1.70;;
19998;SDS011;10160;50.926;4.374;2023-04-03T12:47:49;6.23;;;1.90;;
19998;SDS011;10160;50.926;4.374;2023-04-03T12:50:30;7.23;;;2.13;;
19998;SDS011;10160;50.926;4.374;2023-04-03T12:53:11;4.17;;;1.60;;
19998;SDS011;10160;50.926;4.374;2023-04-03T12:55:40;6.40;;;1.80;;
19998;SDS011;10160;50.926;4.374;2023-04-03T12:58:25;5.67;;;1.90;;
19998;SDS011;10160;50.926;4.374;2023-04-03T13:00:59;5.83;;;1.90;;
19998;SDS011;10160;50.926;4.374;2023-04-03T13:03:27;5.77;;;2.00;;
19998;SDS011;10160;50.926;4.374;2023-04-03T13:05:58;5.67;;;1.90;;
19998;SDS011;10160;50.926;4.374;2023-04-03T13:08:26;4.77;;;1.87;;
19998;SDS011;10160;50.926;4.374;2023-04-03T13:14:01;8.00;;;1.60;;
19998;SDS011;10160;50.926;4.374;2023-04-03T13:16:32;6.83;;;2.03;;
19998;SDS011;10160;50.926;4.374;2023-04-03T13:18:58;9.73;;;2.30;;
19998;SDS011;10160;50.926;4.374;2023-04-03T13:21:26;8.20;;;1.80;;
19998;SDS011;10160;50.926;4.374;2023-04-03T13:23:57;5.80;;;1.77;;
19998;SDS011;10160;50.926;4.374;2023-04-03T13:26:27;6.20;;;1.67;;
19998;SDS011;10160;50.926;4.374;2023-04-03T13:28:57;4.30;;;1.40;;
19998;SDS011;10160;50.926;4.374;2023-04-03T13:31:29;5.23;;;1.80;;
19998;SDS011;10160;50.926;4.374;2023-04-03T13:34:10;6.90;;;1.83;;
19998;SDS011;10160;50.926;4.374;2023-04-03T13:36:46;6.43;;;1.73;;
19998;SDS011;10160;50.926;4.374;2023-04-03T13:39:23;6.33;;;1.80;;
19998;SDS011;10160;50.926;4.374;2023-04-03T13:41:55;4.23;;;1.60;;
19998;SDS011;10160;50.926;4.374;2023-04-03T13:46:57;7.40;;;1.70;;
19998;SDS011;10160;50.926;4.374;2023-04-03T13:50:12;8.13;;;1.77;;
19998;SDS011;10160;50.926;4.374;2023-04-03T13:52:31;7.27;;;2.10;;
19998;SDS011;10160;50.926;4.374;2023-04-03T13:55:02;7.50;;;2.00;;
19998;SDS011;10160;50.926;4.374;2023-04-03T13:57:54;8.50;;;1.87;;
19998;SDS011;10160;50.926;4.374;2023-04-03T14:02:53;9.57;;;2.10;;
19998;SDS011;10160;50.926;4.374;2023-04-03T14:05:21;7.00;;;1.93;;
19998;SDS011;10160;50.926;4.374;2023-04-03T14:07:50;8.53;;;2.10;;
19998;SDS011;10160;50.926;4.374;2023-04-03T14:10:16;7.17;;;1.90;;
19998;SDS011;10160;50.926;4.374;2023-04-03T14:12:42;8.07;;;2.00;;
19998;SDS011;10160;50.926;4.374;2023-04-03T14:15:24;4.10;;;1.77;;
19998;SDS011;10160;50.926;4.374;2023-04-03T14:17:53;7.83;;;1.70;;
19998;SDS011;10160;50.926;4.374;2023-04-03T14:20:21;7.43;;;2.70;;
19998;SDS011;10160;50.926;4.374;2023-04-03T14:22:49;6.23;;;2.20;;
19998;SDS011;10160;50.926;4.374;2023-04-03T14:25:18;5.67;;;1.90;;
19998;SDS011;10160;50.926;4.374;2023-04-03T14:27:45;5.53;;;1.73;;
19998;SDS011;10160;50.926;4.374;2023-04-03T14:30:18;4.83;;;1.77;;
19998;SDS011;10160;50.926;4.374;2023-04-03T14:32:44;4.60;;;1.63;;
19998;SDS011;10160;50.926;4.374;2023-04-03T14:35:11;5.20;;;2.03;;
19998;SDS011;10160;50.926;4.374;2023-04-03T14:37:36;5.43;;;2.03;;
19998;SDS011;10160;50.926;4.374;2023-04-03T14:40:02;7.83;;;2.97;;
19998;SDS011;10160;50.926;4.374;2023-04-03T14:42:34;6.13;;;2.97;;
19998;SDS011;10160;50.926;4.374;2023-04-03T14:45:03;8.27;;;3.57;;
19998;SDS011;10160;50.926;4.374;2023-04-03T14:47:41;4.27;;;1.70;;
19998;SDS011;10160;50.926;4.374;2023-04-03T14:50:17;7.00;;;2.47;;
19998;SDS011;10160;50.926;4.374;2023-04-03T14:52:48;5.87;;;2.07;;
19998;SDS011;10160;50.926;4.374;2023-04-03T14:55:17;8.87;;;3.83;;
19998;SDS011;10160;50.926;4.374;2023-04-03T14:57:45;5.23;;;2.07;;
19998;SDS011;10160;50.926;4.374;2023-04-03T15:00:12;5.63;;;1.90;;
19998;SDS011;10160;50.926;4.374;2023-04-03T15:02:41;4.60;;;1.57;;
19998;SDS011;10160;50.926;4.374;2023-04-03T15:05:11;7.20;;;1.73;;
19998;SDS011;10160;50.926;4.374;2023-04-03T15:07:38;5.70;;;1.87;;
19998;SDS011;10160;50.926;4.374;2023-04-03T15:12:51;5.37;;;1.87;;
19998;SDS011;10160;50.926;4.374;2023-04-03T15:15:18;6.80;;;1.50;;
19998;SDS011;10160;50.926;4.374;2023-04-03T15:17:45;6.83;;;1.80;;
19998;SDS011;10160;50.926;4.374;2023-04-03T15:20:16;4.17;;;1.60;;
19998;SDS011;10160;50.926;4.374;2023-04-03T15:22:45;6.10;;;2.00;;
19998;SDS011;10160;50.926;4.374;2023-04-03T15:25:11;7.10;;;1.70;;
19998;SDS011;10160;50.926;4.374;2023-04-03T15:27:39;5.77;;;1.60;;
19998;SDS011;10160;50.926;4.374;2023-04-03T15:30:06;5.20;;;1.80;;
19998;SDS011;10160;50.926;4.374;2023-04-03T15:32:33;5.87;;;2.00;;
19998;SDS011;10160;50.926;4.374;2023-04-03T15:35:00;8.90;;;1.77;;
19998;SDS011;10160;50.926;4.374;2023-04-03T15:37:26;7.60;;;1.70;;
19998;SDS011;10160;50.926;4.374;2023-04-03T15:39:51;8.13;;;1.50;;
19998;SDS011;10160;50.926;4.374;2023-04-03T15:42:17;3.53;;;1.40;;
19998;SDS011;10160;50.926;4.374;2023-04-03T15:44:43;4.40;;;1.40;;
19998;SDS011;10160;50.926;4.374;2023-04-03T15:47:08;5.97;;;1.67;;
19998;SDS011;10160;50.926;4.374;2023-04-03T15:49:35;7.37;;;1.90;;
19998;SDS011;10160;50.926;4.374;2023-04-03T15:52:01;6.13;;;2.30;;
19998;SDS011;10160;50.926;4.374;2023-04-03T15:54:27;5.17;;;1.90;;
19998;SDS011;10160;50.926;4.374;2023-04-03T15:56:54;5.57;;;1.77;;
19998;SDS011;10160;50.926;4.374;2023-04-03T15:59:20;11.20;;;2.33;;
19998;SDS011;10160;50.926;4.374;2023-04-03T16:01:46;5.47;;;2.00;;
19998;SDS011;10160;50.926;4.374;2023-04-03T16:04:13;6.07;;;2.10;;
19998;SDS011;10160;50.926;4.374;2023-04-03T16:06:40;5.57;;;2.27;;
19998;SDS011;10160;50.926;4.374;2023-04-03T16:09:06;9.17;;;1.80;;
19998;SDS011;10160;50.926;4.374;2023-04-03T16:11:32;6.37;;;2.40;;
19998;SDS011;10160;50.926;4.374;2023-04-03T16:14:00;5.53;;;2.10;;
19998;SDS011;10160;50.926;4.374;2023-04-03T16:16:26;5.43;;;2.10;;